Nixon, Nevada
Current Conditions -  °F | °C
As of 1:55 PM on Thursday 27 Nov 2014 (Local Time) from KRTS Reporting Station
Clear Clear  
Wind Chill: 68°   Ceiling: Unl
Heat Index: 68°   Visibility: 10mi
Dew Point:   Wind: 21mph
Humidity: 8%   Direction: 240°WSW
Pressure: 30.17"   Gusts: 28mph
Location:  39.94°N, 119.62°W
Report Text: KRTS 272155Z AUTO 24018G24KT 10SM CLR 20/M15 A3017 RMK AO2
Loading
Personal Weather Stations






























Interactive Weather Map New forecast layout! Learn more

10-Day Weather Forecast

Advertisements
Track Severe Weather on mobile